createdAt,value
2023-03-05T00:02:00.221Z,45.86
2023-03-05T00:04:28.390Z,45.49
2023-03-05T00:06:57.432Z,45.06
2023-03-05T00:09:25.754Z,44.97
2023-03-05T00:11:53.905Z,45.09
2023-03-05T00:14:22.307Z,45.00
2023-03-05T00:16:50.520Z,45.23
2023-03-05T00:19:18.920Z,44.70
2023-03-05T00:24:42.548Z,44.45
2023-03-05T00:27:11.054Z,44.70
2023-03-05T00:29:39.308Z,44.70
2023-03-05T00:32:07.833Z,44.80
2023-03-05T00:34:37.499Z,45.03
2023-03-05T00:37:06.084Z,45.06
2023-03-05T00:39:34.667Z,45.07
2023-03-05T00:42:02.842Z,45.35
2023-03-05T00:44:31.014Z,45.43
2023-03-05T00:46:59.805Z,45.23
2023-03-05T00:49:32.293Z,45.16
2023-03-05T00:54:54.514Z,45.15
2023-03-05T00:57:23.023Z,44.64
2023-03-05T00:59:51.563Z,44.77
2023-03-05T01:02:20.237Z,45.05
2023-03-05T01:04:49.727Z,44.91
2023-03-05T01:07:19.291Z,44.86
2023-03-05T01:09:53.709Z,44.97
2023-03-05T01:12:24.750Z,44.84
2023-03-05T01:14:53.636Z,45.11
2023-03-05T01:17:22.202Z,45.55
2023-03-05T01:19:51.458Z,45.68
2023-03-05T01:22:19.536Z,45.46
2023-03-05T01:24:50.624Z,45.23
2023-03-05T01:27:18.744Z,45.35
2023-03-05T01:29:46.970Z,45.54
2023-03-05T01:32:15.380Z,45.56
2023-03-05T01:34:43.623Z,45.39
2023-03-05T01:37:12.102Z,45.39
2023-03-05T01:39:41.303Z,45.55
2023-03-05T01:42:09.477Z,45.55
2023-03-05T01:44:37.663Z,45.59
2023-03-05T01:47:07.160Z,45.50
2023-03-05T01:49:38.512Z,45.87
2023-03-05T01:52:20.105Z,46.18
2023-03-05T01:54:53.598Z,46.21
2023-03-05T01:57:37.126Z,46.19
2023-03-05T02:00:10.367Z,46.35
2023-03-05T02:02:48.387Z,46.39
2023-03-05T02:05:29.131Z,46.41
2023-03-05T02:07:59.413Z,46.51
2023-03-05T02:10:29.842Z,46.65
2023-03-05T02:12:59.510Z,46.91
2023-03-05T02:15:29.164Z,47.19
2023-03-05T02:18:01.483Z,47.41
2023-03-05T02:20:44.700Z,47.61
2023-03-05T02:23:12.834Z,47.65
2023-03-05T02:25:41.521Z,47.71
2023-03-05T02:28:15.264Z,47.62
2023-03-05T02:30:43.602Z,47.97
2023-03-05T02:33:14.545Z,48.19
2023-03-05T02:35:43.975Z,48.15
2023-03-05T02:38:16.569Z,48.33
2023-03-05T02:40:45.049Z,48.14
2023-03-05T02:43:14.515Z,48.48
2023-03-05T02:45:42.898Z,48.57
2023-03-05T02:48:11.781Z,48.63
2023-03-05T02:50:40.360Z,48.66
2023-03-05T02:53:14.380Z,48.72
2023-03-05T02:55:42.853Z,49.29
2023-03-05T02:58:11.029Z,49.40
2023-03-05T03:00:39.923Z,49.44
2023-03-05T03:03:08.535Z,49.59
2023-03-05T03:05:37.420Z,49.74
2023-03-05T03:08:06.409Z,49.91
2023-03-05T03:10:34.627Z,50.07
2023-03-05T03:13:03.412Z,50.30
2023-03-05T03:15:32.139Z,50.32
2023-03-05T03:18:00.626Z,50.30
2023-03-05T03:20:29.311Z,50.31
2023-03-05T03:22:58.306Z,50.38
2023-03-05T03:25:26.894Z,50.52
2023-03-05T03:27:55.062Z,50.69
2023-03-05T03:30:23.345Z,50.72
2023-03-05T03:32:52.537Z,50.90
2023-03-05T03:35:20.620Z,50.86
2023-03-05T03:37:50.019Z,50.96
2023-03-05T03:40:18.377Z,51.13
2023-03-05T03:42:47.797Z,51.18
2023-03-05T03:45:16.485Z,51.28
2023-03-05T03:47:45.472Z,51.44
2023-03-05T03:50:14.061Z,51.42
2023-03-05T03:52:42.551Z,51.53
2023-03-05T03:55:11.651Z,51.79
2023-03-05T03:57:39.834Z,51.87
2023-03-05T04:00:09.854Z,51.97
2023-03-05T04:02:40.575Z,51.97
2023-03-05T04:05:09.756Z,51.91
2023-03-05T04:07:38.240Z,51.94
2023-03-05T04:10:08.155Z,52.05
2023-03-05T04:12:36.840Z,52.10
2023-03-05T04:15:08.091Z,51.93
2023-03-05T04:17:36.266Z,51.93
2023-03-05T04:20:06.049Z,51.91
2023-03-05T04:22:37.167Z,51.93
2023-03-05T04:25:06.753Z,51.89
2023-03-05T04:27:35.100Z,51.79
2023-03-05T04:30:23.244Z,51.96
2023-03-05T04:32:52.642Z,51.79
2023-03-05T04:35:20.733Z,51.60
2023-03-05T04:37:49.295Z,51.62
2023-03-05T04:40:18.335Z,51.55
2023-03-05T04:42:46.304Z,51.58
2023-03-05T04:45:14.737Z,51.84
2023-03-05T04:47:44.447Z,51.86
2023-03-05T04:50:18.361Z,51.76
2023-03-05T04:52:49.097Z,51.86
2023-03-05T04:55:17.572Z,51.83
2023-03-05T04:57:46.767Z,51.96
2023-03-05T05:00:15.996Z,51.70
2023-03-05T05:02:48.848Z,51.68
2023-03-05T05:05:19.348Z,51.49
2023-03-05T05:07:48.479Z,51.22
2023-03-05T05:10:17.389Z,51.20
2023-03-05T05:12:45.689Z,51.24
2023-03-05T05:15:15.257Z,51.02
2023-03-05T05:17:43.752Z,51.10
2023-03-05T05:20:14.409Z,51.13
2023-03-05T05:22:43.464Z,51.02
2023-03-05T05:25:11.651Z,50.70
2023-03-05T05:27:40.214Z,50.78
2023-03-05T05:30:09.541Z,50.64
2023-03-05T05:32:38.148Z,50.65
2023-03-05T05:35:07.313Z,50.65
2023-03-05T05:37:35.898Z,51.03
2023-03-05T05:40:05.866Z,50.60
2023-03-05T05:42:34.399Z,50.81
2023-03-05T05:45:03.397Z,50.87
2023-03-05T05:47:32.178Z,50.73
2023-03-05T05:50:02.395Z,50.63
2023-03-05T05:52:31.490Z,50.57
2023-03-05T05:54:59.666Z,50.41
2023-03-05T05:57:28.049Z,50.36
2023-03-05T05:59:57.768Z,50.31
2023-03-05T06:02:27.974Z,50.19
2023-03-05T06:04:58.292Z,50.21
2023-03-05T06:07:27.405Z,49.95
2023-03-05T06:09:56.082Z,49.74
2023-03-05T06:12:24.313Z,49.70
2023-03-05T06:15:07.072Z,49.79
2023-03-05T06:17:36.170Z,49.90
2023-03-05T06:20:07.113Z,49.90
2023-03-05T06:22:39.788Z,49.38
2023-03-05T06:25:08.883Z,49.37
2023-03-05T06:27:37.360Z,49.47
2023-03-05T06:30:06.780Z,49.58
2023-03-05T06:32:35.808Z,49.71
2023-03-05T06:35:04.753Z,49.52
2023-03-05T06:37:34.980Z,49.59
2023-03-05T06:40:03.208Z,49.47
2023-03-05T06:42:31.708Z,49.66
2023-03-05T06:44:59.935Z,49.85
2023-03-05T06:47:28.389Z,49.72
2023-03-05T06:49:57.721Z,49.71
2023-03-05T06:52:26.373Z,49.96
2023-03-05T06:54:56.083Z,49.60
2023-03-05T06:57:24.572Z,49.87
2023-03-05T06:59:52.950Z,49.61
2023-03-05T07:02:21.240Z,49.50
2023-03-05T07:04:49.378Z,49.68
2023-03-05T07:07:18.082Z,49.68
2023-03-05T07:09:48.220Z,49.76
2023-03-05T07:12:16.704Z,49.37
2023-03-05T07:14:45.070Z,49.47
2023-03-05T07:17:15.382Z,49.18
2023-03-05T07:19:46.938Z,49.20
2023-03-05T07:22:16.400Z,49.27
2023-03-05T07:24:45.128Z,49.20
2023-03-05T07:27:13.923Z,48.75
2023-03-05T07:29:42.402Z,48.77
2023-03-05T07:32:11.204Z,48.61
2023-03-05T07:34:39.770Z,48.39
2023-03-05T07:37:09.686Z,48.59
2023-03-05T07:39:37.862Z,48.41
2023-03-05T07:42:07.596Z,48.16
2023-03-05T07:44:48.983Z,47.31
2023-03-05T07:47:17.334Z,47.24
2023-03-05T07:49:46.744Z,47.22
2023-03-05T07:52:14.876Z,47.38
2023-03-05T07:54:43.494Z,46.75
2023-03-05T07:57:12.693Z,46.58
2023-03-05T07:59:40.970Z,46.58
2023-03-05T08:02:12.014Z,46.18
2023-03-05T08:04:42.350Z,45.48
2023-03-05T08:07:10.611Z,45.88
2023-03-05T08:09:39.152Z,46.08
2023-03-05T08:12:07.969Z,45.62
2023-03-05T08:14:37.088Z,45.38
2023-03-05T08:17:05.869Z,45.06
2023-03-05T08:19:36.640Z,45.28
2023-03-05T08:22:05.916Z,44.71
2023-03-05T08:24:34.485Z,44.45
2023-03-05T08:27:02.967Z,44.69
2023-03-05T08:29:31.245Z,44.41
2023-03-05T08:31:59.865Z,44.41
2023-03-05T08:34:28.205Z,44.40
2023-03-05T08:36:56.383Z,44.68
2023-03-05T08:39:25.274Z,44.40
2023-03-05T08:41:53.608Z,44.35
2023-03-05T08:44:22.438Z,44.52
2023-03-05T08:46:50.757Z,44.52
2023-03-05T08:49:18.995Z,44.46
2023-03-05T08:51:47.578Z,44.08
2023-03-05T08:54:15.858Z,44.22
2023-03-05T08:57:14.241Z,43.95
2023-03-05T08:59:42.762Z,44.29
2023-03-05T09:03:50.958Z,43.95
2023-03-05T09:06:19.613Z,43.20
2023-03-05T09:08:50.962Z,43.47
2023-03-05T09:11:20.679Z,43.63
2023-03-05T09:13:49.164Z,43.30
2023-03-05T09:16:19.025Z,42.95
2023-03-05T09:18:47.650Z,43.01
2023-03-05T09:21:17.058Z,42.89
2023-03-05T09:23:49.937Z,42.73
2023-03-05T09:26:21.768Z,42.62
2023-03-05T09:28:50.044Z,42.64
2023-03-05T09:31:18.905Z,42.81
2023-03-05T09:33:48.988Z,43.12
2023-03-05T09:36:21.569Z,43.25
2023-03-05T09:38:52.393Z,42.65
2023-03-05T09:41:37.157Z,42.38
2023-03-05T09:44:11.273Z,42.25
2023-03-05T09:46:53.168Z,41.90
2023-03-05T09:49:32.726Z,41.93
2023-03-05T09:52:16.552Z,42.06
2023-03-05T09:54:45.952Z,41.81
2023-03-05T09:57:18.935Z,41.99
2023-03-05T09:59:50.191Z,41.61
2023-03-05T10:02:26.271Z,41.24
2023-03-05T10:05:03.682Z,41.33
2023-03-05T10:07:37.132Z,40.56
2023-03-05T10:10:10.388Z,40.40
2023-03-05T10:12:45.110Z,40.07
2023-03-05T10:15:26.470Z,40.07
2023-03-05T10:18:32.528Z,40.43
2023-03-05T10:21:41.845Z,40.49
2023-03-05T10:24:25.916Z,40.57
2023-03-05T10:27:05.935Z,40.70
2023-03-05T10:30:05.196Z,40.61
2023-03-05T10:32:55.532Z,40.19
2023-03-05T10:35:32.836Z,40.41
2023-03-05T10:38:24.238Z,39.75
2023-03-05T10:40:53.467Z,40.16
2023-03-05T10:43:39.636Z,40.34
2023-03-05T10:46:13.164Z,40.64
2023-03-05T10:48:55.230Z,40.07
2023-03-05T10:51:41.529Z,40.29
2023-03-05T10:54:16.304Z,40.28
2023-03-05T10:56:47.303Z,40.03
2023-03-05T10:59:15.676Z,39.80
2023-03-05T11:01:50.251Z,39.64
2023-03-05T11:04:29.433Z,39.28
2023-03-05T11:06:57.753Z,39.29
2023-03-05T11:09:32.947Z,39.09
2023-03-05T11:12:08.662Z,38.73
2023-03-05T11:14:39.080Z,39.09
2023-03-05T11:17:24.806Z,38.70
2023-03-05T11:19:52.881Z,38.77
2023-03-05T11:22:22.455Z,38.86
2023-03-05T11:25:27.010Z,38.96
2023-03-05T11:28:30.779Z,38.65
2023-03-05T11:31:03.647Z,37.54
2023-03-05T11:33:32.525Z,37.42
2023-03-05T11:36:22.940Z,37.96
2023-03-05T11:39:12.281Z,38.50
2023-03-05T11:41:45.431Z,38.10
2023-03-05T11:44:21.969Z,38.10
2023-03-05T11:46:56.817Z,37.68
2023-03-05T11:49:27.177Z,37.71
2023-03-05T11:52:21.285Z,37.30
2023-03-05T11:54:55.168Z,37.69
2023-03-05T11:57:24.367Z,37.36
2023-03-05T11:59:53.158Z,36.60
2023-03-05T21:14:44.187Z,51.95
2023-03-05T21:17:17.908Z,51.62
2023-03-05T21:19:46.460Z,51.61
2023-03-05T21:22:14.640Z,51.56
2023-03-05T21:25:21.553Z,51.63
2023-03-05T21:27:54.054Z,51.59
2023-03-05T21:30:31.693Z,51.54
2023-03-05T21:33:01.062Z,51.67
2023-03-05T21:35:31.886Z,51.89
2023-03-05T21:38:01.280Z,51.78
2023-03-05T21:40:29.825Z,51.86
2023-03-05T21:42:58.548Z,51.98
2023-03-05T21:45:28.181Z,51.95
2023-03-05T21:47:58.797Z,51.92
2023-03-05T21:50:28.311Z,52.11
2023-03-05T21:52:56.728Z,51.95
2023-03-05T21:55:48.034Z,52.13
2023-03-05T21:58:21.123Z,52.18
2023-03-05T22:00:49.530Z,52.19
2023-03-05T22:03:18.494Z,52.21
2023-03-05T22:05:47.594Z,52.24
2023-03-05T22:08:15.933Z,52.21
2023-03-05T22:10:44.138Z,52.28
2023-03-05T22:13:13.241Z,52.16
2023-03-05T22:15:42.226Z,52.31
2023-03-05T22:18:25.251Z,52.32
2023-03-05T22:20:54.242Z,52.34
2023-03-05T22:23:23.658Z,52.38
2023-03-05T22:26:10.256Z,52.41
2023-03-05T22:28:42.686Z,52.57
2023-03-05T22:31:11.273Z,52.48
2023-03-05T22:33:39.485Z,52.44
2023-03-05T22:36:12.585Z,52.56
2023-03-05T22:38:40.823Z,52.60
2023-03-05T22:41:17.321Z,52.55
2023-03-05T22:43:45.901Z,52.53
2023-03-05T22:46:25.722Z,52.45
2023-03-05T22:48:53.927Z,52.46
2023-03-05T22:51:22.309Z,52.49
2023-03-05T22:53:50.994Z,52.51
2023-03-05T22:56:20.512Z,52.41
2023-03-05T22:58:48.760Z,52.52
2023-03-05T23:01:19.971Z,52.40
2023-03-05T23:04:49.953Z,52.34
2023-03-05T23:07:23.364Z,52.37
2023-03-05T23:09:58.937Z,52.42
